GB-0026 weather

Newton Peveril Airfield
England, United Kingdom

Public forecast

Using degrees Celsius for public forecast. Weather courtesy of forecast.io.

Closest aviation weather report (METAR) to Newton Peveril Airfield

Closest report is Bournemouth Airport, 9.7 nm (17.9 km) E. Retrieved 2020/04/09 13:50 UTC (13 minutes ago):

EGHH 091350Z 13008KT 090V260 CAVOK 22/07 Q1023

Closest aviation forecast (TAF) to Newton Peveril Airfield

Forecast is more than 12 hours old.

Closest forecast is Bournemouth Airport, 9.7 nm (17.9 km) E. Retrieved 2020/02/21 21:06 UTC (2 months ago):

TAF EGHH 210200Z 2021/2123 CNL